createdAt,value
2018-09-28T00:03:09.604Z,12.75
2018-09-28T00:08:12.605Z,12.83
2018-09-28T00:13:06.125Z,12.16
2018-09-28T00:17:49.912Z,12.51
2018-09-28T00:22:33.314Z,12.17
2018-09-28T00:27:16.191Z,11.80
2018-09-28T00:31:59.165Z,12.08
2018-09-28T00:36:42.254Z,11.88
2018-09-28T00:41:25.189Z,12.38
2018-09-28T00:46:08.719Z,12.10
2018-09-28T00:50:51.761Z,12.68
2018-09-28T00:55:34.646Z,12.43
2018-09-28T01:00:18.974Z,12.32
2018-09-28T01:05:07.612Z,12.19
2018-09-28T01:09:54.295Z,11.54
2018-09-28T01:14:37.135Z,11.97
2018-09-28T01:19:20.053Z,11.73
2018-09-28T01:24:02.885Z,11.52
2018-09-28T01:28:45.851Z,11.61
2018-09-28T01:33:28.734Z,11.71
2018-09-28T01:38:12.993Z,11.70
2018-09-28T01:42:55.871Z,11.89
2018-09-28T01:47:39.938Z,11.74
2018-09-28T01:52:22.767Z,11.92
2018-09-28T01:57:06.066Z,12.06
2018-09-28T02:01:49.406Z,11.97
2018-09-28T02:06:32.282Z,11.36
2018-09-28T02:11:17.198Z,11.12
2018-09-28T02:16:00.423Z,11.11
2018-09-28T02:20:44.429Z,11.68
2018-09-28T02:25:27.718Z,12.03
2018-09-28T02:30:10.738Z,11.79
2018-09-28T02:34:53.602Z,10.82
2018-09-28T02:39:36.462Z,10.80
2018-09-28T02:44:19.366Z,10.94
2018-09-28T02:49:03.266Z,11.06
2018-09-28T02:53:46.341Z,11.75
2018-09-28T02:58:30.710Z,11.73
2018-09-28T03:03:13.540Z,11.82
2018-09-28T03:07:56.989Z,11.88
2018-09-28T03:12:39.870Z,11.91
2018-09-28T03:17:24.082Z,10.95
2018-09-28T03:22:07.008Z,11.44
2018-09-28T03:26:49.881Z,11.70
2018-09-28T03:31:33.811Z,11.74
2018-09-28T03:36:16.738Z,11.78
2018-09-28T03:41:00.591Z,11.63
2018-09-28T03:45:44.157Z,11.27
2018-09-28T03:50:28.304Z,11.49
2018-09-28T03:55:11.809Z,11.44
2018-09-28T03:59:54.750Z,11.08
2018-09-28T04:04:37.583Z,10.91
2018-09-28T04:09:20.455Z,10.80
2018-09-28T04:14:03.414Z,11.20
2018-09-28T04:18:47.373Z,11.26
2018-09-28T04:23:30.225Z,11.27
2018-09-28T04:28:13.265Z,10.71
2018-09-28T04:34:25.909Z,11.06
2018-09-28T04:39:08.993Z,11.21
2018-09-28T04:43:51.878Z,10.50
2018-09-28T04:48:36.125Z,11.02
2018-09-28T04:53:19.485Z,11.08
2018-09-28T04:58:02.499Z,11.01
2018-09-28T05:02:45.354Z,11.18
2018-09-28T05:07:28.247Z,11.09
2018-09-28T05:12:11.533Z,11.21
2018-09-28T05:16:54.935Z,10.78
2018-09-28T05:21:37.925Z,10.90
2018-09-28T05:26:20.850Z,11.29
2018-09-28T05:31:04.799Z,11.54
2018-09-28T05:35:47.709Z,11.90
2018-09-28T05:40:30.777Z,11.93
2018-09-28T05:45:23.273Z,12.23
2018-09-28T05:50:06.414Z,12.26
2018-09-28T05:54:49.299Z,12.41
2018-09-28T05:59:38.750Z,11.81
2018-09-28T06:04:27.198Z,13.03
2018-09-28T06:09:11.268Z,12.80
2018-09-28T06:13:54.613Z,13.01
2018-09-28T06:18:37.882Z,13.51
2018-09-28T06:23:20.721Z,13.38
2018-09-28T06:28:03.674Z,12.65
2018-09-28T06:32:46.551Z,13.65
2018-09-28T06:37:29.643Z,13.57
2018-09-28T06:42:12.988Z,13.74
2018-09-28T06:46:55.956Z,13.81
2018-09-28T06:51:41.016Z,13.19
2018-09-28T06:56:24.403Z,13.92
2018-09-28T07:01:07.287Z,13.39
2018-09-28T07:05:50.157Z,14.23
2018-09-28T07:10:35.803Z,15.07
2018-09-28T07:15:18.746Z,14.72
2018-09-28T07:20:01.801Z,15.18
2018-09-28T07:24:45.687Z,15.79
2018-09-28T07:29:28.549Z,15.74
2018-09-28T07:34:11.849Z,16.34
2018-09-28T07:38:54.900Z,15.94
2018-09-28T07:43:37.890Z,16.06
2018-09-28T07:48:21.259Z,17.35
2018-09-28T07:53:04.177Z,16.56
2018-09-28T07:57:47.252Z,17.37
2018-09-28T08:02:30.193Z,17.13
2018-09-28T08:07:13.155Z,17.04
2018-09-28T08:11:56.160Z,17.71
2018-09-28T08:16:40.299Z,17.35
2018-09-28T08:21:23.195Z,17.73
2018-09-28T08:26:06.322Z,17.70
2018-09-28T08:30:49.879Z,17.82
2018-09-28T08:35:32.747Z,18.36
2018-09-28T08:40:16.746Z,18.36
2018-09-28T08:45:00.181Z,17.61
2018-09-28T08:49:43.378Z,18.26
2018-09-28T08:54:26.358Z,19.06
2018-09-28T08:59:10.009Z,19.28
2018-09-28T09:03:52.853Z,19.62
2018-09-28T09:08:35.830Z,19.70
2018-09-28T09:13:20.013Z,19.56
2018-09-28T09:18:03.152Z,19.98
2018-09-28T09:22:46.131Z,20.09
2018-09-28T09:27:29.505Z,20.18
2018-09-28T09:32:12.318Z,20.22
2018-09-28T09:36:55.364Z,20.41
2018-09-28T09:41:38.253Z,20.47
2018-09-28T09:46:24.668Z,21.00
2018-09-28T09:51:07.515Z,20.84
2018-09-28T09:55:50.362Z,21.17
2018-09-28T10:00:38.612Z,21.11
2018-09-28T10:05:21.444Z,21.36
2018-09-28T10:10:05.523Z,21.39
2018-09-28T10:14:48.459Z,21.65
2018-09-28T10:19:32.542Z,21.99
2018-09-28T10:24:15.410Z,21.92
2018-09-28T10:29:01.925Z,22.35
2018-09-28T10:33:44.947Z,22.32
2018-09-28T10:38:27.961Z,22.79
2018-09-28T10:43:10.982Z,23.05
2018-09-28T10:47:54.004Z,23.43
2018-09-28T10:52:36.958Z,24.01
2018-09-28T10:57:20.587Z,23.58
2018-09-28T11:02:03.425Z,24.35
2018-09-28T11:06:47.570Z,24.15
2018-09-28T11:11:30.472Z,23.92
2018-09-28T11:16:13.607Z,23.61
2018-09-28T11:20:56.458Z,24.36
2018-09-28T11:25:39.318Z,25.40
2018-09-28T11:30:22.214Z,25.32
2018-09-28T11:35:05.468Z,25.01
2018-09-28T11:39:48.477Z,25.58
2018-09-28T11:44:31.382Z,25.78
2018-09-28T11:49:14.293Z,26.23
2018-09-28T11:53:57.114Z,25.85
2018-09-28T11:58:40.120Z,25.64
2018-09-28T12:14:30.879Z,26.14
2018-09-28T12:19:14.001Z,25.17
2018-09-28T12:23:56.922Z,25.94
2018-09-28T12:28:42.002Z,24.33
2018-09-28T12:33:24.941Z,24.00
2018-09-28T12:38:08.808Z,23.82
2018-09-28T12:42:51.715Z,22.68
2018-09-28T12:47:36.667Z,22.45
2018-09-28T12:52:19.813Z,22.78
2018-09-28T12:57:02.959Z,22.66
2018-09-28T13:01:45.815Z,22.31
2018-09-28T13:06:28.968Z,22.10
2018-09-28T13:11:11.870Z,22.22
2018-09-28T13:15:55.002Z,21.87
2018-09-28T13:20:37.965Z,21.55
2018-09-28T13:25:21.005Z,21.66
2018-09-28T13:30:04.039Z,21.40
2018-09-28T13:34:46.950Z,21.20
2018-09-28T13:39:29.913Z,20.86
2018-09-28T13:44:14.381Z,20.99
2018-09-28T13:48:57.454Z,20.78
2018-09-28T13:53:41.468Z,20.62
2018-09-28T13:58:24.590Z,20.45
2018-09-28T14:03:07.422Z,20.39
2018-09-28T14:07:50.705Z,20.13
2018-09-28T14:12:33.581Z,20.01
2018-09-28T14:17:16.517Z,20.07
2018-09-28T14:21:59.379Z,19.88
2018-09-28T14:26:42.307Z,19.93
2018-09-28T14:31:25.199Z,19.67
2018-09-28T14:36:08.358Z,19.65
2018-09-28T14:40:51.287Z,19.48
2018-09-28T14:45:36.058Z,19.30
2018-09-28T14:50:24.007Z,19.51
2018-09-28T14:55:13.283Z,19.33
2018-09-28T14:59:56.318Z,19.01
2018-09-28T15:04:39.260Z,18.89
2018-09-28T15:09:23.410Z,19.30
2018-09-28T15:14:06.634Z,18.95
2018-09-28T15:18:49.712Z,19.00
2018-09-28T15:23:32.581Z,18.88
2018-09-28T15:28:15.670Z,18.95
2018-09-28T15:32:58.546Z,19.06
2018-09-28T15:37:41.670Z,18.82
2018-09-28T15:42:25.477Z,19.10
2018-09-28T15:47:08.443Z,18.94
2018-09-28T15:51:51.359Z,18.86
2018-09-28T15:56:34.557Z,18.97
2018-09-28T16:01:17.449Z,18.95
2018-09-28T16:06:00.548Z,18.99
2018-09-28T16:10:43.410Z,18.56
2018-09-28T16:15:26.519Z,18.47
2018-09-28T16:20:09.425Z,18.49
2018-09-28T16:24:52.373Z,18.65
2018-09-28T16:29:35.599Z,18.70
2018-09-28T16:34:18.761Z,18.70
2018-09-28T16:40:32.151Z,18.62
2018-09-28T16:45:15.242Z,18.61
2018-09-28T16:49:58.123Z,18.50
2018-09-28T16:54:40.997Z,18.56
2018-09-28T16:59:25.915Z,18.33
2018-09-28T17:04:08.939Z,18.39
2018-09-28T17:08:51.902Z,18.19
2018-09-28T17:13:34.780Z,18.07
2018-09-28T17:18:17.737Z,18.17
2018-09-28T17:23:00.651Z,18.03
2018-09-28T17:27:44.765Z,17.80
2018-09-28T17:32:27.650Z,17.64
2018-09-28T17:37:10.864Z,17.44
2018-09-28T17:41:54.283Z,17.72
2018-09-28T17:46:37.258Z,17.72
2018-09-28T17:51:20.157Z,17.67
2018-09-28T17:56:03.166Z,16.56
2018-09-28T18:00:46.088Z,17.02
2018-09-28T18:05:29.117Z,16.70
2018-09-28T18:10:12.706Z,16.77
2018-09-28T18:14:55.679Z,17.17
2018-09-28T18:19:38.689Z,17.29
2018-09-28T18:24:21.595Z,16.75
2018-09-28T18:29:04.614Z,16.55
2018-09-28T18:33:47.471Z,16.97
2018-09-28T18:38:31.075Z,17.08
2018-09-28T18:43:14.048Z,17.12
2018-09-28T18:47:57.092Z,17.08
2018-09-28T18:52:40.039Z,17.06
2018-09-28T18:57:23.159Z,17.02
2018-09-28T19:02:06.112Z,17.01
2018-09-28T19:06:49.169Z,16.93
2018-09-28T19:11:32.062Z,17.04
2018-09-28T19:16:15.178Z,16.93
2018-09-28T19:20:58.046Z,16.90
2018-09-28T19:25:42.251Z,16.57
2018-09-28T19:30:25.150Z,15.99
2018-09-28T19:35:08.250Z,16.50
2018-09-28T19:39:51.134Z,16.66
2018-09-28T19:44:34.283Z,16.72
2018-09-28T19:49:18.284Z,15.45
2018-09-28T19:54:01.218Z,15.31
2018-09-28T19:58:44.173Z,15.72
2018-09-28T20:03:27.281Z,15.74
2018-09-28T20:08:10.463Z,15.32
2018-09-28T20:12:53.413Z,15.82
2018-09-28T20:17:37.918Z,16.13
2018-09-28T20:22:23.085Z,15.57
2018-09-28T20:27:07.205Z,15.57
2018-09-28T20:31:50.042Z,16.03
2018-09-28T20:36:34.147Z,15.70
2018-09-28T20:41:17.007Z,15.13
2018-09-28T20:45:59.903Z,15.26
2018-09-28T20:50:42.848Z,15.60
2018-09-28T20:55:26.962Z,14.95
2018-09-28T21:00:09.793Z,15.56
2018-09-28T21:04:52.747Z,15.72
2018-09-28T21:09:35.656Z,16.00
2018-09-28T21:14:18.622Z,15.91
2018-09-28T21:19:01.467Z,15.17
2018-09-28T21:23:44.325Z,15.79
2018-09-28T21:29:56.790Z,15.53
2018-09-28T21:34:39.824Z,15.19
2018-09-28T21:39:22.646Z,15.74
2018-09-28T21:44:05.798Z,15.11
2018-09-28T21:48:48.625Z,14.96
2018-09-28T21:53:31.515Z,15.12
2018-09-28T21:58:15.531Z,15.67
2018-09-28T22:02:58.522Z,15.73
2018-09-28T22:07:41.623Z,15.75
2018-09-28T22:12:24.590Z,15.75
2018-09-28T22:17:07.717Z,15.76
2018-09-28T22:21:50.639Z,15.31
2018-09-28T22:26:33.641Z,14.91
2018-09-28T22:31:16.573Z,14.88
2018-09-28T22:35:59.758Z,15.44
2018-09-28T22:40:42.723Z,15.25
2018-09-28T22:45:25.736Z,15.39
2018-09-28T22:50:08.715Z,14.86
2018-09-28T22:54:51.788Z,14.82
2018-09-28T22:59:34.767Z,14.72
2018-09-28T23:04:17.787Z,15.33
2018-09-28T23:09:00.705Z,15.13
2018-09-28T23:13:43.642Z,15.05
2018-09-28T23:18:26.666Z,15.42
2018-09-28T23:23:09.583Z,15.45
2018-09-28T23:27:53.778Z,15.24
2018-09-28T23:32:36.762Z,15.45
2018-09-28T23:37:20.814Z,15.33
2018-09-28T23:42:03.720Z,15.41
2018-09-28T23:46:46.774Z,15.50
2018-09-28T23:51:29.738Z,15.50
2018-09-28T23:56:13.787Z,15.48
